createdAt,value
2023-10-23T00:01:42.033Z,2.30
2023-10-23T00:04:10.842Z,1.90
2023-10-23T00:06:38.072Z,2.43
2023-10-23T00:09:05.052Z,1.80
2023-10-23T00:11:32.692Z,2.60
2023-10-23T00:14:00.470Z,2.97
2023-10-23T00:16:27.705Z,2.70
2023-10-23T00:18:54.806Z,2.10
2023-10-23T00:21:21.878Z,2.00
2023-10-23T00:23:48.832Z,2.43
2023-10-23T00:26:15.868Z,2.30
2023-10-23T00:28:50.145Z,2.33
2023-10-23T00:31:17.232Z,2.33
2023-10-23T00:33:44.276Z,1.97
2023-10-23T00:36:11.295Z,2.30
2023-10-23T00:38:38.217Z,2.30
2023-10-23T00:41:05.139Z,2.20
2023-10-23T00:43:32.130Z,2.17
2023-10-23T00:46:01.476Z,2.00
2023-10-23T00:48:29.242Z,1.70
2023-10-23T00:51:02.052Z,2.23
2023-10-23T00:53:33.772Z,2.07
2023-10-23T00:56:05.603Z,2.60
2023-10-23T00:58:33.373Z,2.00
2023-10-23T01:01:02.752Z,1.90
2023-10-23T01:03:30.073Z,1.93
2023-10-23T01:05:57.281Z,2.03
2023-10-23T01:08:24.242Z,1.63
2023-10-23T01:10:51.284Z,1.93
2023-10-23T01:13:18.944Z,1.87
2023-10-23T01:15:45.976Z,1.77
2023-10-23T01:18:13.095Z,1.97
2023-10-23T01:20:41.553Z,2.17
2023-10-23T01:23:09.343Z,2.30
2023-10-23T01:25:36.273Z,2.20
2023-10-23T01:28:03.430Z,2.70
2023-10-23T01:30:31.013Z,2.17
2023-10-23T01:32:58.302Z,2.10
2023-10-23T01:35:25.580Z,2.00
2023-10-23T01:37:53.005Z,2.10
2023-10-23T01:40:20.492Z,2.20
2023-10-23T01:42:48.143Z,2.07
2023-10-23T01:45:15.258Z,2.10
2023-10-23T01:47:42.224Z,1.83
2023-10-23T01:50:09.411Z,1.80
2023-10-23T01:52:36.445Z,2.53
2023-10-23T01:55:03.591Z,2.43
2023-10-23T01:57:30.555Z,2.10
2023-10-23T02:00:05.255Z,2.00
2023-10-23T02:02:42.411Z,1.97
2023-10-23T02:05:09.693Z,2.37
2023-10-23T02:07:36.633Z,2.27
2023-10-23T02:10:03.672Z,2.40
2023-10-23T02:12:30.613Z,2.97
2023-10-23T02:14:57.623Z,2.33
2023-10-23T02:17:25.035Z,1.90
2023-10-23T02:19:52.007Z,1.93
2023-10-23T02:22:19.866Z,2.07
2023-10-23T02:24:47.431Z,2.70
2023-10-23T02:27:14.752Z,2.27
2023-10-23T02:29:42.100Z,2.10
2023-10-23T02:32:09.876Z,3.40
2023-10-23T02:34:38.443Z,3.63
2023-10-23T02:37:08.428Z,3.63
2023-10-23T02:39:35.395Z,3.93
2023-10-23T02:42:02.753Z,3.43
2023-10-23T02:44:29.788Z,2.90
2023-10-23T02:46:56.807Z,2.90
2023-10-23T02:49:24.475Z,3.27
2023-10-23T02:51:51.608Z,2.90
2023-10-23T02:54:18.738Z,2.87
2023-10-23T02:56:45.808Z,2.90
2023-10-23T02:59:13.617Z,2.90
2023-10-23T03:01:40.749Z,2.30
2023-10-23T03:04:08.024Z,3.40
2023-10-23T03:06:35.145Z,2.67
2023-10-23T03:09:02.258Z,2.87
2023-10-23T03:11:29.212Z,3.53
2023-10-23T03:13:56.151Z,4.10
2023-10-23T03:16:26.092Z,3.00
2023-10-23T03:18:54.169Z,2.93
2023-10-23T03:21:21.170Z,2.67
2023-10-23T03:23:49.267Z,2.13
2023-10-23T03:26:16.279Z,2.40
2023-10-23T03:28:43.226Z,2.97
2023-10-23T03:31:11.044Z,3.73
2023-10-23T03:33:38.792Z,3.80
2023-10-23T03:36:06.131Z,5.20
2023-10-23T03:38:33.244Z,3.77
2023-10-23T03:41:00.981Z,3.10
2023-10-23T03:43:28.190Z,3.27
2023-10-23T03:45:56.024Z,3.47
2023-10-23T03:48:23.174Z,2.73
2023-10-23T03:50:50.192Z,3.00
2023-10-23T03:53:17.134Z,3.07
2023-10-23T03:55:44.054Z,2.87
2023-10-23T03:58:11.011Z,4.83
2023-10-23T04:00:38.087Z,3.00
2023-10-23T04:03:05.132Z,3.13
2023-10-23T04:05:32.215Z,3.40
2023-10-23T04:07:59.568Z,3.10
2023-10-23T04:10:26.794Z,2.80
2023-10-23T04:12:53.871Z,2.93
2023-10-23T04:15:21.039Z,2.93
2023-10-23T04:17:48.813Z,3.03
2023-10-23T04:20:15.820Z,2.87
2023-10-23T04:22:43.374Z,3.00
2023-10-23T04:25:10.913Z,2.40
2023-10-23T04:27:38.043Z,2.60
2023-10-23T04:30:05.891Z,3.40
2023-10-23T04:32:32.980Z,3.10
2023-10-23T04:35:00.491Z,2.80
2023-10-23T04:37:27.453Z,3.07
2023-10-23T04:39:54.496Z,3.10
2023-10-23T04:42:21.527Z,2.77
2023-10-23T04:44:51.657Z,2.87
2023-10-23T04:47:18.594Z,3.30
2023-10-23T04:49:48.934Z,3.20
2023-10-23T04:52:15.865Z,3.50
2023-10-23T04:54:42.843Z,3.40
2023-10-23T04:57:09.768Z,9.50
2023-10-23T04:59:37.231Z,6.60
2023-10-23T05:02:04.545Z,4.30
2023-10-23T05:04:32.483Z,3.73
2023-10-23T05:07:00.332Z,4.20
2023-10-23T05:09:27.440Z,3.33
2023-10-23T05:11:54.447Z,3.47
2023-10-23T05:14:21.404Z,3.43
2023-10-23T05:16:48.386Z,4.13
2023-10-23T05:19:15.362Z,3.40
2023-10-23T05:21:42.395Z,3.60
2023-10-23T05:24:09.559Z,3.00
2023-10-23T05:26:36.627Z,3.87
2023-10-23T05:29:04.341Z,3.60
2023-10-23T05:31:31.701Z,3.30
2023-10-23T05:33:59.107Z,4.00
2023-10-23T05:36:26.405Z,3.20
2023-10-23T05:38:53.333Z,4.17
2023-10-23T05:41:20.295Z,3.90
2023-10-23T05:43:47.185Z,4.13
2023-10-23T05:46:14.276Z,4.00
2023-10-23T05:48:41.330Z,3.90
2023-10-23T05:51:08.262Z,4.00
2023-10-23T05:53:36.109Z,4.10
2023-10-23T05:56:05.822Z,5.03
2023-10-23T05:58:36.157Z,4.07
2023-10-23T06:01:11.288Z,4.30
2023-10-23T06:03:38.819Z,4.17
2023-10-23T06:06:06.465Z,4.67
2023-10-23T06:08:33.452Z,4.73
2023-10-23T06:11:03.295Z,4.00
2023-10-23T06:13:30.215Z,4.57
2023-10-23T06:16:04.017Z,4.17
2023-10-23T06:18:36.475Z,4.50
2023-10-23T06:21:06.216Z,4.33
2023-10-23T06:23:34.997Z,4.80
2023-10-23T06:26:01.940Z,5.00
2023-10-23T06:28:28.899Z,5.20
2023-10-23T06:30:55.810Z,4.07
2023-10-23T06:33:22.798Z,4.40
2023-10-23T06:36:00.301Z,4.43
2023-10-23T06:38:27.470Z,4.10
2023-10-23T06:40:54.650Z,3.80
2023-10-23T06:43:22.221Z,5.23
2023-10-23T06:46:01.783Z,4.90
2023-10-23T06:48:29.890Z,5.07
2023-10-23T06:50:56.916Z,6.27
2023-10-23T06:53:23.863Z,4.60
2023-10-23T06:55:55.777Z,5.10
2023-10-23T06:58:23.170Z,5.53
2023-10-23T07:00:50.342Z,5.07
2023-10-23T07:03:17.604Z,4.60
2023-10-23T07:05:44.754Z,6.50
2023-10-23T07:08:11.858Z,5.07
2023-10-23T07:10:39.596Z,6.07
2023-10-23T07:13:19.058Z,5.70
2023-10-23T07:15:49.557Z,6.40
2023-10-23T07:18:16.575Z,5.83
2023-10-23T07:20:58.499Z,6.47
2023-10-23T07:23:25.969Z,6.20
2023-10-23T07:26:02.386Z,6.90
2023-10-23T07:28:29.313Z,7.30
2023-10-23T07:30:56.250Z,7.70
2023-10-23T07:33:23.253Z,7.80
2023-10-23T07:35:59.848Z,7.67
2023-10-23T07:38:26.790Z,8.07
2023-10-23T07:40:53.775Z,6.83
2023-10-23T07:43:20.694Z,7.60
2023-10-23T07:45:50.398Z,7.10
2023-10-23T07:48:19.303Z,7.13
2023-10-23T07:50:46.201Z,7.27
2023-10-23T07:53:13.152Z,6.67
2023-10-23T07:55:40.078Z,7.10
2023-10-23T07:58:07.092Z,7.57
2023-10-23T08:00:34.109Z,8.00
2023-10-23T08:03:01.250Z,7.70
2023-10-23T08:05:28.471Z,7.53
2023-10-23T08:07:55.376Z,7.27
2023-10-23T08:10:22.347Z,8.23
2023-10-23T08:12:49.264Z,7.40
2023-10-23T08:15:17.056Z,7.50
2023-10-23T08:17:44.092Z,6.67
2023-10-23T08:20:11.415Z,6.10
2023-10-23T08:22:38.534Z,6.50
2023-10-23T08:25:06.144Z,6.80
2023-10-23T08:27:33.182Z,6.53
2023-10-23T08:30:00.186Z,6.60
2023-10-23T08:32:34.305Z,6.00
2023-10-23T08:35:12.749Z,6.83
2023-10-23T08:37:39.821Z,7.80
2023-10-23T08:40:07.643Z,7.23
2023-10-23T08:42:35.446Z,6.27
2023-10-23T08:45:03.440Z,5.70
2023-10-23T08:47:30.564Z,6.40
2023-10-23T08:50:00.841Z,6.87
2023-10-23T08:52:36.052Z,6.60
2023-10-23T08:55:05.875Z,7.80
2023-10-23T08:57:34.153Z,6.80
2023-10-23T09:00:01.077Z,7.60
2023-10-23T09:02:31.516Z,7.20
2023-10-23T09:04:58.777Z,5.87
2023-10-23T09:07:25.842Z,6.80
2023-10-23T09:09:52.828Z,6.30
2023-10-23T09:12:34.010Z,6.40
2023-10-23T09:15:33.420Z,7.07
2023-10-23T09:18:00.447Z,5.83
2023-10-23T09:20:28.843Z,6.83
2023-10-23T09:22:56.389Z,7.33
2023-10-23T09:25:25.557Z,6.60
2023-10-23T09:27:53.601Z,8.10
2023-10-23T09:30:23.713Z,6.40
2023-10-23T09:32:56.201Z,6.90
2023-10-23T09:35:29.244Z,6.90
2023-10-23T09:37:59.210Z,6.40
2023-10-23T09:40:27.928Z,6.80
2023-10-23T09:42:57.449Z,6.77
2023-10-23T09:45:25.292Z,6.37
2023-10-23T09:47:55.818Z,6.23
2023-10-23T09:50:23.704Z,6.23
2023-10-23T09:52:52.606Z,4.97
2023-10-23T09:55:21.898Z,4.00
2023-10-23T09:57:55.017Z,3.43
2023-10-23T10:00:24.629Z,2.70
2023-10-23T10:02:56.337Z,3.33
2023-10-23T10:05:34.370Z,4.10
2023-10-23T10:08:05.514Z,3.60
2023-10-23T10:10:34.013Z,3.87
2023-10-23T10:13:01.817Z,2.80
2023-10-23T10:15:29.276Z,3.67
2023-10-23T10:17:56.237Z,3.70
2023-10-23T10:20:24.943Z,3.03
2023-10-23T10:23:14.251Z,3.10
2023-10-23T10:25:44.330Z,3.80
2023-10-23T10:28:11.348Z,3.27
2023-10-23T10:30:52.553Z,4.00
2023-10-23T10:34:21.559Z,3.80
2023-10-23T10:36:47.095Z,3.40
2023-10-23T10:39:07.159Z,3.33
2023-10-23T10:41:36.857Z,2.80
2023-10-23T10:44:13.444Z,2.77
2023-10-23T10:46:43.735Z,2.33
2023-10-23T10:49:11.362Z,3.20
2023-10-23T10:51:38.600Z,3.00
2023-10-23T10:54:12.331Z,2.50
2023-10-23T10:56:39.292Z,3.20
2023-10-23T10:59:06.670Z,3.33
2023-10-23T11:01:34.407Z,2.97
2023-10-23T11:04:02.485Z,2.90
2023-10-23T11:06:30.699Z,2.93
2023-10-23T11:08:59.758Z,2.27
2023-10-23T11:11:29.724Z,2.10
2023-10-23T11:14:01.398Z,2.13
2023-10-23T11:18:57.891Z,2.07
2023-10-23T11:21:25.000Z,1.93
2023-10-23T11:23:56.995Z,1.73
2023-10-23T11:26:23.957Z,1.70
2023-10-23T11:28:50.902Z,2.10
2023-10-23T11:31:17.914Z,2.60
2023-10-23T11:33:45.218Z,2.07
2023-10-23T11:36:13.570Z,2.13
2023-10-23T11:38:40.505Z,1.93
2023-10-23T11:41:09.560Z,2.70
2023-10-23T11:43:36.509Z,2.07
2023-10-23T11:46:05.832Z,1.40
2023-10-23T11:48:32.842Z,2.00
2023-10-23T11:51:00.798Z,1.93
2023-10-23T11:53:29.947Z,1.70
2023-10-23T11:55:58.047Z,2.07
2023-10-23T11:58:28.716Z,1.27
2023-10-23T12:00:55.762Z,1.60
2023-10-23T12:03:22.932Z,1.87
2023-10-23T12:05:49.860Z,1.67
2023-10-23T12:08:16.942Z,1.63
2023-10-23T12:10:43.961Z,1.70
2023-10-23T12:13:10.933Z,1.80
2023-10-23T12:15:37.890Z,2.00
2023-10-23T12:18:05.488Z,1.37
2023-10-23T12:20:33.120Z,1.80
2023-10-23T12:23:00.062Z,1.40
2023-10-23T12:25:27.040Z,1.70
2023-10-23T12:27:54.074Z,1.30
2023-10-23T12:30:23.749Z,1.53
2023-10-23T12:33:16.283Z,1.37
2023-10-23T12:35:41.823Z,1.77
2023-10-23T12:38:09.107Z,1.67
2023-10-23T12:40:37.466Z,1.53
2023-10-23T12:43:05.368Z,1.53
2023-10-23T12:45:32.678Z,1.90
2023-10-23T12:47:59.915Z,1.40
2023-10-23T12:50:27.167Z,1.50
2023-10-23T12:52:54.163Z,2.10
2023-10-23T12:55:21.645Z,1.53
2023-10-23T12:57:48.804Z,1.93
2023-10-23T13:00:16.162Z,1.70
2023-10-23T13:02:44.161Z,2.10
2023-10-23T13:05:12.255Z,1.50
2023-10-23T13:07:39.333Z,1.60
2023-10-23T13:10:07.103Z,1.73
2023-10-23T13:12:35.687Z,2.10
2023-10-23T13:15:04.138Z,1.70
2023-10-23T13:17:31.523Z,1.60
2023-10-23T13:19:58.562Z,1.97
2023-10-23T13:22:45.862Z,2.37
2023-10-23T13:25:15.413Z,2.83
2023-10-23T13:27:42.403Z,2.20
2023-10-23T13:30:11.516Z,1.80
2023-10-23T13:32:39.977Z,1.90
2023-10-23T13:35:08.967Z,1.90
2023-10-23T13:37:36.243Z,2.27
2023-10-23T13:40:07.979Z,2.83
2023-10-23T13:42:36.097Z,2.47
2023-10-23T13:45:03.153Z,2.50
2023-10-23T13:47:30.126Z,2.50
2023-10-23T13:49:59.223Z,2.30
2023-10-23T13:52:26.630Z,2.53
2023-10-23T13:54:53.761Z,2.60
2023-10-23T13:57:20.741Z,2.27
2023-10-23T13:59:48.430Z,2.00
2023-10-23T14:02:15.399Z,2.53
2023-10-23T14:04:42.609Z,1.70
2023-10-23T14:07:12.964Z,2.70
2023-10-23T14:09:46.412Z,2.40
2023-10-23T14:12:15.715Z,2.30
2023-10-23T14:14:42.691Z,1.67
2023-10-23T14:17:09.714Z,2.90
2023-10-23T14:19:46.756Z,2.00
2023-10-23T14:22:19.149Z,2.10
2023-10-23T14:24:48.933Z,2.10
2023-10-23T14:27:16.098Z,1.93
2023-10-23T14:29:43.200Z,2.10
2023-10-23T14:32:10.424Z,2.03
2023-10-23T14:34:37.429Z,1.60
2023-10-23T14:37:04.598Z,2.03
2023-10-23T14:39:31.602Z,2.07
2023-10-23T14:41:58.534Z,1.60
2023-10-23T14:44:25.661Z,2.03
2023-10-23T14:46:53.396Z,1.83
2023-10-23T14:49:22.454Z,1.60
2023-10-23T14:51:52.342Z,2.00
2023-10-23T14:54:19.555Z,2.20
2023-10-23T14:56:47.223Z,2.00
2023-10-23T14:59:15.398Z,2.13
2023-10-23T15:01:42.561Z,2.17
2023-10-23T15:04:09.932Z,2.33
2023-10-23T15:06:36.918Z,1.77
2023-10-23T15:09:03.935Z,1.97
2023-10-23T15:11:30.880Z,1.90
2023-10-23T15:13:57.932Z,2.53
2023-10-23T15:16:25.040Z,2.57
2023-10-23T15:18:55.586Z,2.40
2023-10-23T15:21:23.378Z,2.27
2023-10-23T15:23:50.321Z,2.10
2023-10-23T15:26:17.371Z,2.33
2023-10-23T15:28:44.875Z,2.00
2023-10-23T15:31:12.361Z,2.53
2023-10-23T15:33:39.517Z,2.67
2023-10-23T15:36:07.271Z,2.60
2023-10-23T15:38:36.217Z,2.50
2023-10-23T15:41:15.278Z,2.13
2023-10-23T15:43:45.849Z,2.43
2023-10-23T15:46:15.752Z,2.50
2023-10-23T15:48:43.531Z,3.03
2023-10-23T15:51:11.552Z,2.87
2023-10-23T15:53:39.316Z,2.70
2023-10-23T15:56:07.109Z,3.20
2023-10-23T15:58:35.922Z,3.53
2023-10-23T16:01:05.090Z,3.73
2023-10-23T16:03:36.452Z,5.30
2023-10-23T16:06:09.034Z,6.00
2023-10-23T16:08:36.855Z,6.27
2023-10-23T16:11:04.113Z,4.83
2023-10-23T16:13:38.316Z,5.80
2023-10-23T16:16:15.747Z,6.40
2023-10-23T16:18:45.222Z,6.50
2023-10-23T16:21:16.188Z,7.97
2023-10-23T16:23:43.701Z,7.17
2023-10-23T16:26:11.302Z,7.47
2023-10-23T16:28:38.447Z,14.70
2023-10-23T16:31:05.524Z,12.43
2023-10-23T16:33:32.606Z,8.40
2023-10-23T16:35:59.511Z,9.97
2023-10-23T16:38:26.426Z,12.50
2023-10-23T16:40:53.350Z,9.70
2023-10-23T16:43:20.762Z,13.53
2023-10-23T16:45:47.736Z,17.50
2023-10-23T16:48:14.699Z,14.40
2023-10-23T16:50:41.719Z,13.07
2023-10-23T16:53:08.696Z,12.93
2023-10-23T16:55:35.754Z,13.67
2023-10-23T16:58:02.801Z,13.23
2023-10-23T17:00:29.731Z,15.20
2023-10-23T17:02:56.869Z,15.40
2023-10-23T17:05:23.830Z,16.40
2023-10-23T17:07:53.072Z,17.53
2023-10-23T17:10:20.504Z,16.93
2023-10-23T17:12:47.716Z,15.67
2023-10-23T17:15:14.687Z,14.43
2023-10-23T17:17:41.654Z,13.80
2023-10-23T17:20:11.121Z,13.73
2023-10-23T17:22:39.346Z,12.50
2023-10-23T17:25:09.265Z,13.03
2023-10-23T17:27:36.881Z,13.20
2023-10-23T17:30:04.373Z,11.03
2023-10-23T17:32:31.364Z,10.87
2023-10-23T17:34:58.365Z,10.70
2023-10-23T17:37:25.465Z,9.57
2023-10-23T17:39:52.401Z,10.20
2023-10-23T17:42:19.320Z,7.73
2023-10-23T17:44:46.260Z,7.80
2023-10-23T17:47:13.232Z,6.70
2023-10-23T17:49:40.441Z,6.43
2023-10-23T17:52:07.871Z,7.23
2023-10-23T17:54:35.068Z,6.87
2023-10-23T17:57:01.987Z,6.97
2023-10-23T17:59:29.028Z,8.90
2023-10-23T18:01:56.214Z,10.87
2023-10-23T18:04:23.304Z,10.30
2023-10-23T18:06:50.288Z,10.50
2023-10-23T18:09:17.696Z,11.83
2023-10-23T18:11:44.690Z,11.50
2023-10-23T18:14:13.247Z,10.93
2023-10-23T18:16:40.386Z,8.93
2023-10-23T18:19:07.717Z,10.80
2023-10-23T18:21:34.674Z,9.67
2023-10-23T18:24:01.601Z,10.63
2023-10-23T18:26:28.749Z,9.20
2023-10-23T18:28:57.967Z,10.77
2023-10-23T18:31:26.610Z,12.37
2023-10-23T18:33:53.649Z,12.43
2023-10-23T18:36:21.535Z,14.67
2023-10-23T18:38:49.777Z,13.00
2023-10-23T18:41:21.570Z,12.90
2023-10-23T18:43:49.440Z,13.73
2023-10-23T18:46:16.902Z,14.47
2023-10-23T18:48:46.633Z,14.10
2023-10-23T18:51:14.538Z,13.10
2023-10-23T18:53:42.111Z,13.47
2023-10-23T18:56:09.685Z,15.13
2023-10-23T18:58:36.915Z,14.70
2023-10-23T19:01:04.072Z,15.33
2023-10-23T19:03:31.568Z,13.57
2023-10-23T19:05:58.774Z,13.40
2023-10-23T19:08:26.384Z,13.23
2023-10-23T19:10:53.287Z,13.90
2023-10-23T19:13:21.400Z,11.37
2023-10-23T19:16:00.086Z,10.97
2023-10-23T19:18:30.925Z,11.83
2023-10-23T19:21:02.780Z,10.87
2023-10-23T19:23:30.048Z,12.23
2023-10-23T19:25:56.953Z,11.90
2023-10-23T19:28:24.113Z,11.43
2023-10-23T19:30:51.553Z,10.87
2023-10-23T19:33:18.966Z,11.90
2023-10-23T19:35:46.244Z,11.10
2023-10-23T19:38:13.599Z,12.00
2023-10-23T19:40:50.564Z,11.57
2023-10-23T19:43:20.688Z,12.30
2023-10-23T19:45:47.932Z,12.17
2023-10-23T19:48:15.315Z,13.00
2023-10-23T19:50:46.654Z,13.53
2023-10-23T19:53:16.116Z,13.20
2023-10-23T19:55:47.419Z,14.37
2023-10-23T19:58:16.899Z,12.90
2023-10-23T20:00:44.390Z,14.03
2023-10-23T20:03:11.464Z,12.00
2023-10-23T20:05:38.450Z,13.30
2023-10-23T20:08:05.747Z,11.67
2023-10-23T20:10:33.335Z,11.60
2023-10-23T20:13:00.667Z,12.40
2023-10-23T20:15:28.034Z,12.47
2023-10-23T20:17:58.382Z,12.30
2023-10-23T20:20:27.021Z,13.37
2023-10-23T20:22:54.137Z,12.87
2023-10-23T20:25:21.215Z,11.83
2023-10-23T20:27:48.492Z,13.43
2023-10-23T20:30:15.585Z,11.30
2023-10-23T20:32:42.788Z,12.13
2023-10-23T20:35:10.070Z,11.83
2023-10-23T20:37:37.195Z,12.40
2023-10-23T20:40:05.836Z,13.37
2023-10-23T20:42:34.557Z,11.97
2023-10-23T20:45:06.209Z,10.77
2023-10-23T20:47:33.796Z,10.20
2023-10-23T20:50:02.327Z,9.70
2023-10-23T20:52:30.955Z,10.37
2023-10-23T20:54:58.073Z,10.77
2023-10-23T20:57:25.367Z,9.40
2023-10-23T20:59:52.543Z,8.97
2023-10-23T21:02:19.496Z,8.60
2023-10-23T21:04:46.489Z,8.90
2023-10-23T21:07:13.529Z,8.87
2023-10-23T21:09:40.785Z,9.83
2023-10-23T21:12:08.294Z,9.83
2023-10-23T21:14:47.461Z,8.70
2023-10-23T21:17:15.873Z,9.57
2023-10-23T21:19:43.190Z,8.87
2023-10-23T21:22:11.074Z,8.73
2023-10-23T21:24:38.173Z,8.90
2023-10-23T21:27:05.182Z,9.47
2023-10-23T21:29:32.447Z,8.60
2023-10-23T21:32:00.702Z,9.73
2023-10-23T21:34:27.821Z,7.67
2023-10-23T21:36:54.840Z,8.20
2023-10-23T21:39:21.782Z,8.43
2023-10-23T21:41:48.686Z,9.37
2023-10-23T21:44:15.616Z,9.13
2023-10-23T21:46:42.672Z,7.50
2023-10-23T21:49:11.341Z,9.47
2023-10-23T21:51:39.220Z,10.40
2023-10-23T21:54:06.944Z,9.80
2023-10-23T21:57:19.410Z,9.00
2023-10-23T21:59:22.551Z,9.20
2023-10-23T22:01:53.391Z,9.07
2023-10-23T22:04:21.341Z,8.30
2023-10-23T22:06:48.538Z,7.60
2023-10-23T22:09:16.472Z,8.93
2023-10-23T22:11:44.349Z,8.20
2023-10-23T22:14:12.004Z,8.50
2023-10-23T22:16:39.086Z,8.93
2023-10-23T22:19:06.511Z,8.90
2023-10-23T22:21:33.587Z,7.00
2023-10-23T22:24:00.500Z,6.20
2023-10-23T22:26:27.528Z,6.67
2023-10-23T22:28:54.425Z,6.10
2023-10-23T22:31:21.398Z,6.40
2023-10-23T22:33:48.811Z,6.20
2023-10-23T22:36:16.009Z,6.33
2023-10-23T22:38:42.994Z,6.30
2023-10-23T22:41:09.986Z,7.10
2023-10-23T22:43:36.954Z,7.67
2023-10-23T22:46:04.294Z,7.80
2023-10-23T22:48:32.261Z,7.10
2023-10-23T22:50:59.596Z,7.97
2023-10-23T22:53:26.823Z,7.40
2023-10-23T22:55:55.616Z,7.17
2023-10-23T22:58:31.916Z,7.30
2023-10-23T23:00:59.905Z,7.07
2023-10-23T23:03:27.693Z,6.50
2023-10-23T23:06:03.866Z,5.93
2023-10-23T23:08:31.600Z,6.53
2023-10-23T23:10:58.745Z,5.93
2023-10-23T23:13:26.114Z,5.80
2023-10-23T23:15:53.598Z,5.60
2023-10-23T23:18:22.563Z,5.67
2023-10-23T23:20:52.768Z,6.80
2023-10-23T23:23:19.660Z,5.80
2023-10-23T23:25:46.562Z,5.67
2023-10-23T23:28:13.535Z,5.70
2023-10-23T23:30:40.564Z,5.37
2023-10-23T23:33:07.491Z,5.00
2023-10-23T23:35:34.610Z,5.10
2023-10-23T23:38:01.548Z,6.43
2023-10-23T23:40:28.520Z,6.20
2023-10-23T23:42:55.423Z,6.10
2023-10-23T23:45:22.337Z,5.53
2023-10-23T23:47:49.285Z,5.43
2023-10-23T23:50:16.256Z,6.07
2023-10-23T23:52:43.170Z,6.07
2023-10-23T23:55:10.126Z,6.60
2023-10-23T23:57:37.040Z,6.47
